Météo Nord-Pas-de-Calais   La météo au plus près de chez vous

Station météorologique

Observations météo à Cos (09099)

09099001 519 m Dernier relevé à 12:48
25°C
Humidité 52 % Vent 5 km/h

Journée consultée

Mardi 1 Septembre 2026

Synthèse de la journée

Périodes de référence en UTC

Température maximale

25.1°C

à 12:00

06h 06h

Température minimale

13.1°C

à 06:00

18h 18h

Rafale maximale

18 km/h

à 12:30

00h 00h

Précipitations

0 mm

Cumul quotidien

06h 06h

Graphiques de la journée

Heure locale Réduire

Données détaillées

Relevés météo

Pas de 6 minutes Afficher les relevés infra-horaires
Relevés météo détaillés à Cos pour le Mardi 1 Septembre 2026
Heure Température °C Point de rosée °C Humidité % Vent moyen (raf.), km/h Précipitations mm
12:48 25 °C 13.9 °C 50 % 7 km/h (15 km/h) 0 mm0 mm
12:42 24.5 °C 13.4 °C 50 % 6 km/h (14 km/h) 0 mm0 mm
12:36 24.2 °C 13.4 °C 51 % 8 km/h (18 km/h) 0 mm0 mm
12:30 23.9 °C 13.7 °C 53 % 12 km/h (18 km/h) 0 mm0 mm
12:24 23.8 °C 13.6 °C 53 % 12 km/h (18 km/h) 0 mm0 mm
12:18 24.1 °C 13.6 °C 52 % 11 km/h (18 km/h) 0 mm0 mm
12:12 24.2 °C 14.3 °C 54 % 9 km/h (15 km/h) 0 mm0 mm
12:06 25 °C 14.2 °C 51 % 7 km/h (15 km/h) 0 mm0 mm
12:00 25.1 °C 14.5 °C 52 % 5 km/h (12 km/h) 0 mm0 mm
11:54 24.5 °C 13.7 °C 51 % 4 km/h (10 km/h) 0 mm0 mm
11:48 24.2 °C 13.7 °C 52 % 5 km/h (13 km/h) 0 mm0 mm
11:42 23.6 °C 13.5 °C 53 % 6 km/h (13 km/h) 0 mm0 mm
11:36 24 °C 13.8 °C 53 % 4 km/h (9 km/h) 0 mm0 mm
11:30 23.9 °C 14 °C 54 % 4 km/h (10 km/h) 0 mm0 mm
11:24 23.3 °C 13.7 °C 55 % 4 km/h (10 km/h) 0 mm0 mm
11:18 23.5 °C 14.2 °C 56 % 5 km/h (10 km/h) 0 mm0 mm
11:12 23.6 °C 14.9 °C 58 % 4 km/h (7 km/h) 0 mm0 mm
11:06 22.9 °C 14.2 °C 58 % 4 km/h (9 km/h) 0 mm0 mm
11:00 22.7 °C 14.5 °C 60 % 3 km/h (8 km/h) 0 mm0 mm
10:54 22.3 °C 14.2 °C 60 % 3 km/h (9 km/h) 0 mm0 mm
10:48 21.8 °C 13.9 °C 61 % 3 km/h (9 km/h) 0 mm0 mm
10:42 21.4 °C 14.1 °C 63 % 4 km/h (7 km/h) 0 mm0 mm
10:36 20.8 °C 14.2 °C 66 % 4 km/h (8 km/h) 0 mm0 mm
10:30 20.5 °C 14.2 °C 67 % 4 km/h (8 km/h) 0 mm0 mm
10:24 20.4 °C 13.6 °C 65 % 3 km/h (9 km/h) 0 mm0 mm
10:18 20.3 °C 14.2 °C 68 % 3 km/h (9 km/h) 0 mm0 mm
10:12 19.9 °C 14.3 °C 70 % 3 km/h (7 km/h) 0 mm0 mm
10:06 19.6 °C 14 °C 70 % 4 km/h (8 km/h) 0 mm0 mm
10:00 19.6 °C 14 °C 70 % 4 km/h (8 km/h) 0 mm0 mm
09:54 19.3 °C 14.3 °C 73 % 4 km/h (8 km/h) 0 mm0 mm
09:48 18.7 °C 13.8 °C 73 % 4 km/h (8 km/h) 0 mm0 mm
09:42 18.4 °C 13.9 °C 75 % 5 km/h (8 km/h) 0 mm0 mm
09:36 18.2 °C 13.7 °C 75 % 5 km/h (9 km/h) 0 mm0 mm
09:30 17.9 °C 14 °C 78 % 5 km/h (9 km/h) 0 mm0 mm
09:24 17.4 °C 13.5 °C 78 % 5 km/h (8 km/h) 0 mm0 mm
09:18 17.2 °C 13.3 °C 78 % 4 km/h (7 km/h) 0 mm0 mm
09:12 16.9 °C 13.2 °C 79 % 4 km/h (7 km/h) 0 mm0 mm
09:06 16.9 °C 13.4 °C 80 % 4 km/h (8 km/h) 0 mm0 mm
09:00 16.7 °C 13.2 °C 80 % 4 km/h (7 km/h) 0 mm0 mm
08:54 16.5 °C 13.2 °C 81 % 4 km/h (7 km/h) 0 mm0 mm
08:48 16.3 °C 13.4 °C 83 % 3 km/h (7 km/h) 0 mm0 mm
08:42 15.9 °C 13.7 °C 87 % 0 km/h (4 km/h) 0 mm0 mm
08:36 15.5 °C 13.5 °C 88 % 0 km/h (3 km/h) 0 mm0 mm
08:30 15 °C 13 °C 88 % 2 km/h (4 km/h) 0 mm0 mm
08:24 14.7 °C 13.1 °C 90 % 2 km/h (4 km/h) 0 mm0 mm
08:18 14.4 °C 13.3 °C 93 % 3 km/h (5 km/h) 0 mm0 mm
08:12 14 °C 12.9 °C 93 % 4 km/h (5 km/h) 0 mm0 mm
08:06 13.9 °C 12.9 °C 94 % 3 km/h (5 km/h) 0 mm0 mm
08:00 13.7 °C 12.8 °C 94 % 2 km/h (4 km/h) 0 mm0 mm
07:54 13.4 °C 12 °C 91 % 2 km/h (4 km/h) 0 mm0 mm
07:48 13.6 °C 12.5 °C 93 % 2 km/h (4 km/h) 0 mm0 mm
07:42 13.4 °C 12.5 °C 94 % 0 km/h (4 km/h) 0 mm0 mm
07:36 13.4 °C 12.5 °C 94 % 2 km/h (5 km/h) 0 mm0 mm
07:30 13.4 °C 12.3 °C 93 % 2 km/h (5 km/h) 0 mm0 mm
07:24 13.4 °C 12.5 °C 94 % 3 km/h (6 km/h) 0 mm0 mm
07:18 13.4 °C 12.3 °C 93 % 4 km/h (9 km/h) 0 mm0 mm
07:12 13.5 °C 12.4 °C 93 % 4 km/h (7 km/h) 0 mm0 mm
07:06 13.5 °C 12.1 °C 91 % 4 km/h (6 km/h) 0 mm0 mm
07:00 13.8 °C 12.5 °C 92 % 4 km/h (6 km/h) 0 mm0 mm
06:54 13.6 °C 12.3 °C 92 % 3 km/h (5 km/h) 0 mm0 mm
06:48 13.7 °C 12.3 °C 91 % 0 km/h (4 km/h) 0 mm0 mm
06:42 13.6 °C 12.3 °C 92 % 0 km/h (0 km/h) 0 mm0 mm
06:36 13.5 °C 12.4 °C 93 % 0 km/h (0 km/h) 0 mm0 mm
06:30 13.3 °C 12.2 °C 93 % 0 km/h (3 km/h) 0 mm0 mm
06:24 13.2 °C 12.1 °C 93 % 2 km/h (4 km/h) 0 mm0 mm
06:18 13.3 °C 12 °C 92 % 0 km/h (4 km/h) 0 mm0 mm
06:12 13.6 °C 12.3 °C 92 % 2 km/h (4 km/h) 0 mm0 mm
06:06 13.6 °C 12.2 °C 91 % 4 km/h (5 km/h) 0 mm0 mm
06:00 13.7 °C 12.1 °C 90 % 4 km/h (6 km/h) 0 mm0 mm
05:54 13.8 °C 12.2 °C 90 % 4 km/h (6 km/h) 0 mm0 mm
05:48 13.9 °C 12.1 °C 89 % 4 km/h (6 km/h) 0 mm0 mm
05:42 14.1 °C 12.1 °C 88 % 5 km/h (6 km/h) 0 mm0 mm
05:36 14.3 °C 12.3 °C 88 % 5 km/h (6 km/h) 0 mm0 mm
05:30 13.7 °C 12.3 °C 91 % 4 km/h (5 km/h) 0 mm0 mm
05:24 13.6 °C 12.3 °C 92 % 4 km/h (6 km/h) 0 mm0 mm
05:18 13.3 °C 12 °C 92 % 5 km/h (6 km/h) 0 mm0 mm
05:12 13.2 °C 11.9 °C 92 % 5 km/h (6 km/h) 0 mm0 mm
05:06 13.7 °C 12.1 °C 90 % 3 km/h (5 km/h) 0 mm0 mm
05:00 13.6 °C 12.2 °C 91 % 0 km/h (3 km/h) 0 mm0 mm
04:54 13.7 °C 12.1 °C 90 % 0 km/h (3 km/h) 0 mm0 mm
04:48 13.8 °C 12.2 °C 90 % 0 km/h (3 km/h) 0 mm0 mm
04:42 14 °C 12 °C 88 % 2 km/h (4 km/h) 0 mm0 mm
04:36 14.2 °C 12.2 °C 88 % 3 km/h (5 km/h) 0 mm0 mm
04:30 14.2 °C 12.2 °C 88 % 4 km/h (6 km/h) 0 mm0 mm
04:24 14.7 °C 12 °C 84 % 4 km/h (6 km/h) 0 mm0 mm
04:18 14.9 °C 12.2 °C 84 % 4 km/h (6 km/h) 0 mm0 mm
04:12 14.9 °C 12.2 °C 84 % 4 km/h (7 km/h) 0 mm0 mm
04:06 14.8 °C 12.3 °C 85 % 4 km/h (6 km/h) 0 mm0 mm
04:00 14.7 °C 12.2 °C 85 % 4 km/h (6 km/h) 0 mm0 mm
03:54 14.6 °C 12.3 °C 86 % 4 km/h (6 km/h) 0 mm0 mm
03:48 14.3 °C 12.3 °C 88 % 4 km/h (6 km/h) 0 mm0 mm
03:42 14.5 °C 12.4 °C 87 % 5 km/h (6 km/h) 0 mm0 mm
03:36 14.5 °C 12.4 °C 87 % 4 km/h (6 km/h) 0 mm0 mm
03:30 14.6 °C 12.1 °C 85 % 4 km/h (5 km/h) 0 mm0 mm
03:24 14.7 °C 12.2 °C 85 % 3 km/h (5 km/h) 0 mm0 mm
03:18 14.9 °C 12.4 °C 85 % 2 km/h (5 km/h) 0 mm0 mm
03:12 14.5 °C 12.4 °C 87 % 2 km/h (4 km/h) 0 mm0 mm
03:06 14.7 °C 12.4 °C 86 % 4 km/h (6 km/h) 0 mm0 mm
03:00 15 °C 12.5 °C 85 % 5 km/h (6 km/h) 0 mm0 mm
02:54 14.9 °C 12.6 °C 86 % 4 km/h (6 km/h) 0 mm0 mm
02:48 15.1 °C 12.6 °C 85 % 3 km/h (6 km/h) 0 mm0 mm
02:42 14.6 °C 12.6 °C 88 % 4 km/h (6 km/h) 0 mm0 mm
02:36 14.4 °C 12.6 °C 89 % 3 km/h (4 km/h) 0 mm0 mm
02:30 14.1 °C 12.7 °C 91 % 3 km/h (5 km/h) 0 mm0 mm
02:24 13.9 °C 12.6 °C 92 % 4 km/h (5 km/h) 0 mm0 mm
02:18 14.2 °C 12.6 °C 90 % 3 km/h (5 km/h) 0 mm0 mm
02:12 14.3 °C 12.5 °C 89 % 3 km/h (4 km/h) 0 mm0 mm
02:06 14.7 °C 12.7 °C 88 % 0 km/h (4 km/h) 0 mm0 mm
02:00 14.5 °C 12.7 °C 89 % 0 km/h (4 km/h) 0 mm0 mm
01:54 14.4 °C 12.6 °C 89 % 2 km/h (4 km/h) 0 mm0 mm
01:48 14.7 °C 12.4 °C 86 % 0 km/h (4 km/h) 0 mm0 mm
01:42 15.5 °C 12.4 °C 82 % 0 km/h (3 km/h) 0 mm0 mm
01:36 15.5 °C 12.6 °C 83 % 0 km/h (4 km/h) 0 mm0 mm
01:30 15.6 °C 12.5 °C 82 % 2 km/h (5 km/h) 0 mm0 mm
01:24 15.6 °C 12.5 °C 82 % 3 km/h (5 km/h) 0 mm0 mm
01:18 15.4 °C 12.5 °C 83 % 2 km/h (5 km/h) 0 mm0 mm
01:12 15.3 °C 12.6 °C 84 % 3 km/h (6 km/h) 0 mm0 mm
01:06 15.4 °C 12.9 °C 85 % 4 km/h (6 km/h) 0 mm0 mm
01:00 15.1 °C 13 °C 87 % 4 km/h (7 km/h) 0 mm0 mm
00:54 15.1 °C 13 °C 87 % 4 km/h (7 km/h) 0 mm0 mm
00:48 15.5 °C 12.8 °C 84 % 5 km/h (7 km/h) 0 mm0 mm
00:42 15.9 °C 12.8 °C 82 % 5 km/h (8 km/h) 0 mm0 mm
00:36 15.9 °C 12.8 °C 82 % 3 km/h (6 km/h) 0 mm0 mm
00:30 16.1 °C 12.8 °C 81 % 2 km/h (5 km/h) 0 mm0 mm
00:24 16.2 °C 12.7 °C 80 % 3 km/h (6 km/h) 0 mm0 mm
00:18 16.4 °C 12.9 °C 80 % 4 km/h (7 km/h) 0 mm0 mm
00:12 16.3 °C 12.8 °C 80 % 4 km/h (7 km/h) 0 mm0 mm
00:06 16.4 °C 12.9 °C 80 % 3 km/h (6 km/h) 0 mm0 mm
00:00 16.2 °C 13.1 °C 82 % 4 km/h (6 km/h) 0 mm0 mm

Données via Météo-France

Relevés météo à Cos

Cette page rassemble les observations de la station de Cos : température, humidité, vent, précipitations et pression atmosphérique. Les graphiques facilitent le suivi de la journée, tandis que le tableau donne accès aux mesures horaires et infra-horaires disponibles.

Pour replacer ces mesures dans leur contexte, consultez la climatologie de Cos ainsi que ses normales et records. Retrouvez aussi la carte des observations météo en temps réel.